Time;durP1;ratioP1;P1;durP2;ratioP2;P2;SDS_P1;SDS_P2;PMS_P1;PMS_P2;Temp;Humidity;BMP_temperature;BMP_pressure;BME280_temperature;BME280_humidity;BME280_pressure;Samples;Min_cycle;Max_cycle;Signal;HPM_P1;HPM_P2
2022/04/13 00:01:17;;;;;;;19.30;12.87;;;11.00;72.10;;;;;;5047119;28;20035;-71
2022/04/13 00:03:43;;;;;;;19.17;12.90;;;11.00;72.30;;;;;;5062727;28;20040;-71
2022/04/13 00:06:09;;;;;;;18.05;13.70;;;10.90;72.10;;;;;;5045830;28;20048;-71
2022/04/13 00:08:35;;;;;;;18.58;13.63;;;10.90;72.60;;;;;;5053942;28;20376;-71
2022/04/13 00:11:01;;;;;;;20.40;13.50;;;10.80;73.20;;;;;;5035445;28;20528;-71
2022/04/13 00:13:27;;;;;;;25.20;14.30;;;10.70;72.80;;;;;;5036792;28;20045;-71
2022/04/13 00:15:53;;;;;;;19.08;13.93;;;10.70;72.70;;;;;;5036092;28;20127;-71
2022/04/13 00:18:19;;;;;;;22.53;14.63;;;10.70;73.30;;;;;;5028893;28;20542;-71
2022/04/13 00:20:45;;;;;;;19.93;12.80;;;10.60;73.70;;;;;;5059659;28;20043;-71
2022/04/13 00:23:11;;;;;;;20.33;13.75;;;10.60;73.40;;;;;;5059449;28;20037;-71
2022/04/13 00:25:39;;;;;;;19.52;14.30;;;10.50;73.20;;;;;;5025005;28;20149;-71
2022/04/13 00:28:06;;;;;;;22.35;14.95;;;10.50;73.10;;;;;;5042287;28;20062;-71
2022/04/13 00:30:32;;;;;;;22.63;14.95;;;10.50;73.30;;;;;;5039836;28;20173;-71
2022/04/13 00:32:58;;;;;;;27.00;16.52;;;10.50;73.30;;;;;;5060661;28;20040;-71
2022/04/13 00:35:23;;;;;;;22.33;15.40;;;10.50;73.50;;;;;;5034797;28;20047;-71
2022/04/13 00:37:49;;;;;;;23.00;15.63;;;10.50;73.60;;;;;;5033283;28;20033;-71
2022/04/13 00:40:15;;;;;;;23.17;15.40;;;10.40;73.50;;;;;;5030206;28;20055;-71
2022/04/13 00:42:41;;;;;;;26.47;15.70;;;10.40;73.50;;;;;;5060112;28;20040;-71
2022/04/13 00:45:07;;;;;;;20.63;14.57;;;10.40;73.40;;;;;;5057032;28;20754;-71
2022/04/13 00:47:39;;;;;;;21.15;15.02;;;10.40;73.50;;;;;;5067388;28;20127;-71
2022/04/13 00:50:05;;;;;;;22.52;15.02;;;10.40;73.50;;;;;;5062519;28;20083;-71
2022/04/13 00:52:35;;;;;;;20.80;14.40;;;10.30;73.50;;;;;;5061319;28;20036;-71
2022/04/13 00:55:03;;;;;;;24.15;16.35;;;10.30;73.60;;;;;;5046283;28;20408;-71
2022/04/13 00:57:32;;;;;;;25.02;15.68;;;10.30;73.50;;;;;;5045032;28;20048;-71
2022/04/13 00:59:59;;;;;;;23.38;16.17;;;10.30;73.70;;;;;;5060083;28;20123;-71
2022/04/13 01:02:27;;;;;;;27.73;18.10;;;10.30;73.90;;;;;;5059952;28;20515;-71
2022/04/13 01:04:54;;;;;;;25.80;17.52;;;10.30;73.80;;;;;;5069520;28;20612;-72
2022/04/13 01:07:22;;;;;;;27.92;17.00;;;10.30;74.00;;;;;;5067327;28;20397;-71
2022/04/13 01:09:49;;;;;;;25.17;16.70;;;10.40;74.00;;;;;;5052566;28;20039;-71
2022/04/13 01:12:15;;;;;;;25.27;17.80;;;10.50;74.10;;;;;;5067496;28;20040;-71
2022/04/13 01:14:40;;;;;;;29.73;18.23;;;10.50;74.30;;;;;;5046635;28;20047;-71
2022/04/13 01:17:07;;;;;;;27.77;19.70;;;10.50;74.40;;;;;;5029076;28;20123;-71
2022/04/13 01:19:33;;;;;;;25.83;17.60;;;10.60;74.60;;;;;;5031930;28;20059;-71
2022/04/13 01:22:03;;;;;;;26.87;18.57;;;10.60;74.70;;;;;;5061587;28;20500;-71
2022/04/13 01:24:29;;;;;;;30.55;19.10;;;10.70;74.70;;;;;;5027595;28;20047;-72
2022/04/13 01:26:55;;;;;;;25.58;17.73;;;10.80;75.20;;;;;;5045344;28;20066;-71
2022/04/13 01:29:21;;;;;;;25.90;17.40;;;10.80;75.90;;;;;;5067781;28;20492;-71
2022/04/13 01:31:49;;;;;;;32.07;18.73;;;10.70;75.90;;;;;;5036212;28;20039;-71
2022/04/13 01:34:15;;;;;;;29.85;19.23;;;10.70;75.80;;;;;;5040161;28;20432;-71
2022/04/13 01:36:41;;;;;;;29.33;19.47;;;10.70;76.00;;;;;;5073490;28;20065;-71
2022/04/13 01:39:07;;;;;;;28.87;19.30;;;10.70;76.20;;;;;;5041393;28;20048;-71
2022/04/13 01:41:34;;;;;;;29.75;19.58;;;10.70;76.20;;;;;;5064351;28;20043;-71
2022/04/13 01:44:00;;;;;;;29.45;19.10;;;10.80;75.60;;;;;;5074162;28;20478;-71
2022/04/13 01:46:26;;;;;;;30.93;20.20;;;10.80;75.90;;;;;;5041471;28;20043;-71
2022/04/13 01:48:51;;;;;;;35.00;20.92;;;10.80;76.40;;;;;;5049578;28;20060;-71
2022/04/13 01:51:20;;;;;;;33.13;22.07;;;10.80;76.70;;;;;;5065807;28;20168;-71
2022/04/13 01:53:47;;;;;;;32.55;20.13;;;10.80;76.70;;;;;;5051863;28;20563;-71
2022/04/13 01:56:13;;;;;;;30.80;19.65;;;10.80;76.50;;;;;;5065625;28;20039;-71
2022/04/13 01:58:39;;;;;;;30.10;20.13;;;10.80;77.30;;;;;;5065271;28;20055;-71
2022/04/13 02:01:04;;;;;;;31.07;20.77;;;10.80;77.30;;;;;;5066043;28;20044;-71
2022/04/13 02:03:30;;;;;;;36.20;22.27;;;10.70;77.50;;;;;;5052655;28;20066;-71
2022/04/13 02:05:56;;;;;;;31.50;21.23;;;10.70;76.90;;;;;;5034141;28;20036;-71
2022/04/13 02:08:22;;;;;;;28.43;18.83;;;10.70;77.30;;;;;;5066309;28;20040;-71
2022/04/13 02:10:49;;;;;;;29.63;20.17;;;10.70;77.10;;;;;;5017588;28;20147;-71
2022/04/13 02:13:16;;;;;;;30.02;18.55;;;10.70;76.90;;;;;;5072698;28;20127;-71
2022/04/13 02:15:42;;;;;;;29.45;19.73;;;10.70;76.80;;;;;;5044761;28;20098;-71
2022/04/13 02:18:08;;;;;;;27.20;19.13;;;10.60;77.00;;;;;;5061034;28;20058;-71
2022/04/13 02:20:34;;;;;;;28.67;19.98;;;10.60;76.60;;;;;;5062327;28;20036;-71
2022/04/13 02:23:01;;;;;;;30.63;18.80;;;10.50;76.40;;;;;;5053669;28;20527;-71
2022/04/13 02:25:28;;;;;;;28.75;19.13;;;10.50;76.30;;;;;;5054131;28;20488;-71
2022/04/13 02:27:54;;;;;;;27.98;18.23;;;10.40;76.60;;;;;;5037380;28;20044;-71
2022/04/13 02:30:19;;;;;;;31.05;19.00;;;10.40;76.50;;;;;;5042867;28;20488;-71
2022/04/13 02:32:45;;;;;;;29.47;18.13;;;10.40;76.50;;;;;;5068526;28;20101;-71
2022/04/13 02:35:12;;;;;;;27.87;17.77;;;10.40;76.60;;;;;;5061962;28;20382;-71
2022/04/13 02:37:38;;;;;;;27.27;17.65;;;10.40;76.70;;;;;;5060631;28;20043;-71
2022/04/13 02:40:06;;;;;;;27.70;17.73;;;10.40;76.40;;;;;;5042582;28;20043;-71
2022/04/13 02:42:33;;;;;;;24.17;18.05;;;10.40;76.20;;;;;;5045043;28;20044;-71
2022/04/13 02:44:59;;;;;;;29.48;18.63;;;10.40;76.20;;;;;;5061092;28;20117;-71
2022/04/13 02:47:25;;;;;;;26.90;17.23;;;10.40;76.10;;;;;;5059983;28;20052;-71
2022/04/13 02:49:51;;;;;;;27.40;17.37;;;10.40;76.10;;;;;;5055274;28;20040;-71
2022/04/13 02:52:16;;;;;;;24.77;16.33;;;10.30;76.10;;;;;;5063420;28;20122;-71
2022/04/13 02:54:42;;;;;;;26.03;17.23;;;10.30;76.20;;;;;;5035861;28;20077;-71
2022/04/13 02:57:08;;;;;;;25.77;16.03;;;10.30;76.10;;;;;;5039026;28;20047;-71
2022/04/13 02:59:33;;;;;;;28.70;17.60;;;10.30;76.10;;;;;;5015965;28;20033;-71
2022/04/13 03:01:59;;;;;;;26.73;17.40;;;10.20;76.10;;;;;;5046198;28;20071;-71
2022/04/13 03:04:25;;;;;;;26.50;18.20;;;10.10;76.00;;;;;;5033268;28;20044;-71
2022/04/13 03:06:50;;;;;;;28.23;17.53;;;10.10;76.10;;;;;;5027834;28;20044;-71
2022/04/13 03:09:16;;;;;;;24.40;16.50;;;10.00;76.10;;;;;;5028386;28;20536;-71
2022/04/13 03:11:42;;;;;;;25.50;17.20;;;10.00;76.20;;;;;;5042625;28;20074;-71
2022/04/13 03:14:07;;;;;;;23.87;16.87;;;9.90;76.20;;;;;;5056734;28;20417;-71
2022/04/13 03:16:33;;;;;;;27.73;17.50;;;9.90;76.20;;;;;;5043118;28;20097;-71
2022/04/13 03:19:00;;;;;;;26.73;17.20;;;9.90;76.30;;;;;;5036156;28;20560;-71
2022/04/13 03:21:27;;;;;;;27.52;17.42;;;9.80;76.50;;;;;;5029142;28;20037;-71
2022/04/13 03:23:52;;;;;;;27.10;17.45;;;9.80;76.50;;;;;;5066455;28;20044;-71
2022/04/13 03:26:18;;;;;;;24.63;17.13;;;9.80;76.50;;;;;;5063631;28;20044;-71
2022/04/13 03:28:44;;;;;;;28.73;18.27;;;9.80;76.60;;;;;;5052511;28;20055;-71
2022/04/13 03:31:09;;;;;;;27.43;19.00;;;9.80;76.80;;;;;;5062234;28;20078;-71
2022/04/13 03:33:35;;;;;;;27.97;19.23;;;9.80;76.90;;;;;;5045709;28;20040;-71
2022/04/13 03:36:01;;;;;;;28.83;20.07;;;9.80;77.80;;;;;;5034510;28;20568;-71
2022/04/13 03:38:27;;;;;;;31.97;20.10;;;9.80;77.90;;;;;;5060126;28;20044;-71
2022/04/13 03:40:52;;;;;;;32.13;20.80;;;9.80;77.90;;;;;;5053527;28;20059;-71
2022/04/13 03:43:18;;;;;;;29.90;20.60;;;9.90;78.40;;;;;;5052676;28;20094;-71
2022/04/13 03:45:44;;;;;;;33.90;19.93;;;9.90;78.20;;;;;;5031945;28;20036;-71
2022/04/13 03:48:09;;;;;;;30.60;18.87;;;9.90;78.50;;;;;;5019943;28;20044;-71
2022/04/13 03:50:35;;;;;;;28.90;19.70;;;9.90;78.70;;;;;;5016483;28;20113;-71
2022/04/13 03:53:01;;;;;;;32.43;18.93;;;9.90;79.00;;;;;;5055263;28;20036;-71
2022/04/13 03:55:26;;;;;;;30.77;20.80;;;10.00;78.50;;;;;;5042839;28;20079;-71
2022/04/13 03:57:52;;;;;;;32.77;19.60;;;10.00;78.60;;;;;;5039166;28;20051;-71
2022/04/13 04:00:18;;;;;;;31.50;19.33;;;10.00;78.60;;;;;;5058320;28;20047;-71
2022/04/13 04:02:44;;;;;;;28.10;19.43;;;10.00;78.50;;;;;;5064076;28;20037;-71
2022/04/13 04:05:13;;;;;;;34.25;20.77;;;10.10;78.50;;;;;;5066040;28;20040;-71
2022/04/13 04:07:39;;;;;;;30.98;19.90;;;10.10;78.50;;;;;;5043047;28;20131;-72
2022/04/13 04:10:06;;;;;;;29.33;20.25;;;10.20;78.30;;;;;;5032817;28;20492;-71
2022/04/13 04:12:40;;;;;;;31.70;20.52;;;10.20;78.80;;;;;;5040818;28;20148;-71
2022/04/13 04:15:08;;;;;;;29.25;19.95;;;10.20;78.70;;;;;;5035795;28;20049;-71
2022/04/13 04:17:34;;;;;;;28.92;19.98;;;10.20;78.40;;;;;;5042340;28;20041;-71
2022/04/13 04:19:59;;;;;;;28.83;19.27;;;10.30;78.50;;;;;;5053697;28;20040;-71
2022/04/13 04:22:26;;;;;;;26.30;19.03;;;10.30;78.30;;;;;;5064524;28;20403;-71
2022/04/13 04:24:53;;;;;;;28.42;19.55;;;10.30;78.20;;;;;;5035854;28;20042;-71
2022/04/13 04:27:19;;;;;;;27.95;19.23;;;10.30;78.30;;;;;;5041655;28;20072;-71
2022/04/13 04:29:45;;;;;;;29.98;20.05;;;10.30;78.20;;;;;;5051638;28;20380;-71
2022/04/13 04:32:10;;;;;;;32.23;19.80;;;10.30;78.20;;;;;;5043779;28;20565;-71
2022/04/13 04:34:36;;;;;;;30.30;20.53;;;10.30;78.30;;;;;;5052768;28;20759;-71
2022/04/13 04:37:02;;;;;;;30.17;20.50;;;10.30;78.70;;;;;;5067255;28;20141;-71
2022/04/13 04:39:28;;;;;;;34.40;22.03;;;10.30;78.70;;;;;;5022942;28;20032;-71
2022/04/13 04:41:54;;;;;;;32.42;21.88;;;10.30;79.20;;;;;;5051929;28;20472;-71
2022/04/13 04:44:20;;;;;;;34.13;21.57;;;10.30;78.80;;;;;;5040426;28;20043;-71
2022/04/13 04:46:45;;;;;;;36.77;21.73;;;10.40;79.00;;;;;;5045917;28;20028;-71
2022/04/13 04:49:11;;;;;;;31.80;21.13;;;10.40;79.40;;;;;;5056168;28;20504;-71
2022/04/13 04:51:37;;;;;;;31.47;21.23;;;10.40;79.30;;;;;;5029246;28;20051;-71
2022/04/13 04:54:03;;;;;;;36.07;22.20;;;10.40;79.70;;;;;;5036757;28;20064;-71
2022/04/13 04:56:29;;;;;;;34.70;22.13;;;10.40;80.10;;;;;;5040841;28;20040;-71
2022/04/13 04:58:56;;;;;;;33.78;23.13;;;10.40;80.80;;;;;;5053017;28;20660;-71
2022/04/13 05:01:21;;;;;;;33.97;21.00;;;10.40;81.20;;;;;;5049594;28;20041;-71
2022/04/13 05:03:50;;;;;;;32.57;22.53;;;10.40;81.80;;;;;;5022862;28;20040;-71
2022/04/13 05:06:23;;;;;;;34.42;22.25;;;10.40;81.20;;;;;;5064139;28;20062;-71
2022/04/13 05:08:49;;;;;;;31.42;22.33;;;10.40;80.60;;;;;;5032282;28;20045;-71
2022/04/13 05:11:16;;;;;;;31.98;21.63;;;10.50;80.40;;;;;;5048844;28;20051;-71
2022/04/13 05:13:45;;;;;;;33.60;20.65;;;10.50;80.30;;;;;;5036991;28;20035;-71
2022/04/13 05:16:14;;;;;;;38.20;22.50;;;10.50;80.60;;;;;;5013198;28;20480;-71
2022/04/13 05:18:41;;;;;;;31.80;20.40;;;10.60;80.50;;;;;;5033737;28;20044;-71
2022/04/13 05:21:08;;;;;;;28.05;19.38;;;10.60;80.40;;;;;;5049161;28;20044;-71
2022/04/13 05:23:34;;;;;;;30.92;21.65;;;10.60;80.40;;;;;;5030723;28;20500;-71
2022/04/13 05:25:59;;;;;;;36.10;21.57;;;10.60;80.30;;;;;;5025424;28;20105;-71
2022/04/13 05:28:25;;;;;;;33.87;20.80;;;10.60;80.10;;;;;;5064818;28;20340;-71
2022/04/13 05:30:51;;;;;;;30.87;20.30;;;10.60;80.30;;;;;;5038540;28;20389;-71
2022/04/13 05:33:16;;;;;;;33.33;22.10;;;10.70;80.20;;;;;;5041256;28;20068;-71
2022/04/13 05:35:43;;;;;;;34.47;20.67;;;10.70;80.10;;;;;;5026389;28;20106;-71
2022/04/13 05:38:08;;;;;;;34.65;21.02;;;10.70;80.30;;;;;;5062409;28;20052;-71
2022/04/13 05:40:34;;;;;;;31.83;21.27;;;10.80;80.50;;;;;;5067886;28;20039;-71
2022/04/13 05:43:00;;;;;;;32.20;20.57;;;10.80;80.70;;;;;;5047281;28;20174;-71
2022/04/13 05:45:25;;;;;;;31.00;20.90;;;10.80;80.80;;;;;;5053742;28;20045;-71
2022/04/13 05:47:51;;;;;;;35.87;21.77;;;10.90;80.60;;;;;;5058076;28;20079;-71
2022/04/13 05:50:17;;;;;;;33.20;21.87;;;10.90;80.70;;;;;;5053363;28;20424;-71
2022/04/13 05:52:43;;;;;;;31.53;21.27;;;10.90;80.50;;;;;;5041968;28;20469;-71
2022/04/13 05:55:10;;;;;;;29.65;20.80;;;11.00;80.70;;;;;;5057420;28;20150;-71
2022/04/13 05:57:36;;;;;;;32.85;20.23;;;11.00;80.60;;;;;;5026291;28;20048;-71
2022/04/13 06:00:03;;;;;;;32.57;21.77;;;11.00;80.60;;;;;;5041675;28;20050;-71
2022/04/13 06:02:29;;;;;;;31.83;21.25;;;11.00;80.70;;;;;;5045950;28;20420;-71
2022/04/13 06:04:55;;;;;;;30.53;20.80;;;11.10;81.00;;;;;;5046351;28;20051;-71
2022/04/13 06:07:20;;;;;;;30.37;21.30;;;11.10;80.90;;;;;;5062791;28;20123;-71
2022/04/13 06:09:46;;;;;;;28.63;20.43;;;11.10;80.90;;;;;;5071674;28;20040;-71
2022/04/13 06:12:12;;;;;;;27.83;19.73;;;11.10;80.80;;;;;;5043600;28;20040;-71
2022/04/13 06:14:37;;;;;;;33.27;21.27;;;11.20;80.60;;;;;;5019872;28;20045;-71
2022/04/13 06:17:04;;;;;;;34.43;20.60;;;11.20;80.60;;;;;;5068114;28;20040;-71
2022/04/13 06:19:29;;;;;;;32.60;20.48;;;11.30;80.60;;;;;;5068892;28;20535;-71
2022/04/13 06:21:55;;;;;;;29.23;19.63;;;11.30;80.70;;;;;;5045848;28;20272;-71
2022/04/13 06:24:21;;;;;;;29.67;19.87;;;11.40;80.80;;;;;;5052763;28;20465;-71
2022/04/13 06:26:46;;;;;;;27.37;19.13;;;11.40;80.40;;;;;;5025512;28;20040;-71
2022/04/13 06:29:12;;;;;;;27.60;18.13;;;11.50;80.50;;;;;;5043443;28;20112;-71
2022/04/13 06:31:38;;;;;;;26.60;18.93;;;11.50;80.60;;;;;;5019969;28;20515;-71
2022/04/13 06:34:03;;;;;;;31.13;18.77;;;11.50;80.40;;;;;;5032570;28;20091;-71
2022/04/13 06:36:29;;;;;;;26.23;18.13;;;11.60;80.30;;;;;;5017626;28;20058;-72
2022/04/13 06:38:55;;;;;;;25.70;17.77;;;11.60;80.30;;;;;;5037044;28;20055;-72
2022/04/13 06:41:21;;;;;;;30.02;18.50;;;11.60;80.50;;;;;;5059079;28;20120;-72
2022/04/13 06:43:47;;;;;;;29.03;17.60;;;11.70;80.60;;;;;;5047336;28;20076;-71
2022/04/13 06:46:13;;;;;;;29.43;18.40;;;11.70;80.40;;;;;;5035105;28;20120;-71
2022/04/13 06:48:39;;;;;;;24.60;17.47;;;11.80;80.20;;;;;;5055889;28;20525;-72
2022/04/13 06:51:05;;;;;;;27.33;17.47;;;11.90;80.20;;;;;;5047509;28;20047;-71
2022/04/13 06:53:30;;;;;;;27.33;17.60;;;12.00;80.20;;;;;;5053822;28;20122;-71
2022/04/13 06:55:56;;;;;;;25.40;16.83;;;12.00;80.10;;;;;;5052440;28;20492;-71
2022/04/13 06:58:22;;;;;;;25.50;16.70;;;12.10;80.00;;;;;;5044096;28;20048;-71
2022/04/13 07:00:47;;;;;;;29.17;16.97;;;12.20;79.90;;;;;;5017258;28;20036;-71
2022/04/13 07:03:13;;;;;;;28.03;17.43;;;12.30;79.70;;;;;;5060392;28;20476;-71
2022/04/13 07:05:39;;;;;;;29.30;17.10;;;12.40;79.60;;;;;;5052757;28;20499;-71
2022/04/13 07:08:07;;;;;;;30.40;17.07;;;12.40;79.60;;;;;;5053091;28;20723;-71
2022/04/13 07:10:34;;;;;;;24.70;15.90;;;12.60;79.40;;;;;;5052083;28;20279;-71
2022/04/13 07:13:00;;;;;;;26.83;17.20;;;12.70;79.20;;;;;;5052883;28;20283;-71
2022/04/13 07:15:26;;;;;;;22.30;15.93;;;12.90;78.80;;;;;;5054981;28;20666;-71
2022/04/13 07:17:52;;;;;;;24.47;15.43;;;13.10;78.50;;;;;;5049069;28;20351;-71
2022/04/13 07:20:18;;;;;;;27.30;16.43;;;13.30;78.00;;;;;;5044902;28;20677;-71
2022/04/13 07:22:52;;;;;;;27.17;16.37;;;13.50;77.10;;;;;;5050629;28;20279;-71
2022/04/13 07:25:18;;;;;;;25.83;15.95;;;13.70;76.50;;;;;;5050013;28;20048;-71
2022/04/13 07:27:46;;;;;;;22.37;15.13;;;13.80;76.50;;;;;;5049815;28;20099;-71
2022/04/13 07:30:13;;;;;;;25.60;16.27;;;14.00;76.40;;;;;;5021389;28;20285;-71
2022/04/13 07:32:39;;;;;;;28.03;15.77;;;14.10;75.70;;;;;;5003807;28;20394;-72
2022/04/13 07:35:06;;;;;;;22.40;14.97;;;14.10;75.10;;;;;;5038004;28;20344;-72
2022/04/13 07:37:32;;;;;;;24.10;14.00;;;14.20;75.80;;;;;;5054158;28;20297;-71
2022/04/13 07:39:59;;;;;;;24.60;14.50;;;14.20;74.70;;;;;;5049826;28;20278;-72
2022/04/13 07:42:28;;;;;;;24.67;14.17;;;14.20;74.20;;;;;;5029604;28;20957;-72
2022/04/13 07:44:54;;;;;;;26.33;15.00;;;14.30;74.50;;;;;;5043489;28;20282;-72
2022/04/13 07:47:22;;;;;;;23.27;14.50;;;14.40;73.90;;;;;;5051259;28;20627;-72
2022/04/13 07:49:49;;;;;;;19.70;13.50;;;14.50;73.90;;;;;;5040925;28;20283;-72
2022/04/13 07:52:16;;;;;;;22.57;14.47;;;14.60;73.60;;;;;;5037651;28;20298;-72
2022/04/13 07:54:44;;;;;;;25.60;14.23;;;14.60;73.70;;;;;;5050826;28;20282;-72
2022/04/13 07:57:10;;;;;;;24.83;14.37;;;14.80;74.00;;;;;;5056398;28;20278;-72
2022/04/13 07:59:36;;;;;;;23.60;14.57;;;14.90;72.50;;;;;;5040831;28;20638;-72
2022/04/13 08:02:02;;;;;;;24.67;14.00;;;14.90;72.80;;;;;;5039564;28;20071;-72
2022/04/13 08:04:28;;;;;;;22.83;14.10;;;14.90;72.90;;;;;;5066214;28;20486;-72
2022/04/13 08:06:55;;;;;;;19.77;14.17;;;15.00;73.00;;;;;;5040635;28;20287;-72
2022/04/13 08:09:20;;;;;;;23.40;13.67;;;15.10;72.10;;;;;;5053456;28;20352;-72
2022/04/13 08:11:46;;;;;;;21.63;14.30;;;15.10;71.00;;;;;;5030292;28;20277;-72
2022/04/13 08:14:12;;;;;;;23.03;13.87;;;14.90;71.90;;;;;;5044749;28;20032;-72
2022/04/13 08:16:38;;;;;;;21.07;12.77;;;14.80;71.90;;;;;;5055461;28;20049;-72
2022/04/13 08:19:05;;;;;;;23.73;13.80;;;14.60;71.90;;;;;;5057217;28;20114;-72
2022/04/13 08:21:33;;;;;;;25.40;13.63;;;14.40;71.80;;;;;;5041546;28;20051;-72
2022/04/13 08:23:58;;;;;;;24.30;14.90;;;14.30;72.90;;;;;;5042677;28;20387;-72
2022/04/13 08:26:24;;;;;;;24.60;14.37;;;14.20;73.80;;;;;;5062550;28;20897;-72
2022/04/13 08:28:50;;;;;;;21.80;13.80;;;14.20;73.90;;;;;;5067249;28;20044;-72
2022/04/13 08:31:16;;;;;;;25.73;13.00;;;14.30;74.20;;;;;;5037901;28;20415;-72
2022/04/13 08:33:42;;;;;;;19.47;12.13;;;14.40;73.40;;;;;;5067301;28;20040;-72
2022/04/13 08:36:07;;;;;;;21.20;12.20;;;14.40;73.10;;;;;;5062902;28;20296;-72
2022/04/13 08:38:33;;;;;;;19.57;11.40;;;14.40;72.90;;;;;;5046275;28;20173;-72
2022/04/13 08:41:01;;;;;;;18.73;11.47;;;14.60;73.20;;;;;;5036843;28;20487;-72
2022/04/13 08:43:44;;;;;;;19.57;11.40;;;14.70;72.10;;;;;;5063203;28;20071;-72
2022/04/13 08:46:14;;;;;;;16.00;10.70;;;14.90;72.30;;;;;;5045657;28;20282;-72
2022/04/13 08:48:42;;;;;;;18.53;11.20;;;15.00;71.40;;;;;;5057297;28;20274;-72
2022/04/13 08:51:13;;;;;;;17.67;10.73;;;15.10;71.40;;;;;;5049449;28;20886;-72
2022/04/13 08:53:43;;;;;;;18.57;11.03;;;15.10;70.40;;;;;;5063963;28;20289;-72
2022/04/13 08:56:13;;;;;;;23.40;11.30;;;15.10;71.10;;;;;;5035827;28;20634;-72
2022/04/13 08:58:49;;;;;;;19.43;11.47;;;15.10;71.00;;;;;;5060707;28;20304;-72
2022/04/13 09:01:34;;;;;;;18.27;10.50;;;15.30;71.20;;;;;;5042326;28;20303;-72
2022/04/13 09:04:10;;;;;;;20.45;9.90;;;15.40;71.10;;;;;;5055648;28;20287;-72
2022/04/13 09:06:39;;;;;;;19.17;10.20;;;15.60;70.20;;;;;;5030141;28;20144;-72
2022/04/13 09:09:14;;;;;;;17.20;10.43;;;15.70;69.70;;;;;;5027939;28;20337;-72
2022/04/13 09:11:43;;;;;;;18.00;11.25;;;15.80;69.10;;;;;;5052110;28;20326;-72
2022/04/13 09:14:09;;;;;;;16.90;11.07;;;15.80;69.00;;;;;;5045208;28;20072;-72
2022/04/13 09:16:35;;;;;;;15.90;9.37;;;15.90;69.00;;;;;;5054408;28;20697;-72
2022/04/13 09:19:02;;;;;;;17.03;9.73;;;15.80;69.50;;;;;;5033556;28;20654;-72
2022/04/13 09:21:30;;;;;;;15.87;9.33;;;15.90;69.30;;;;;;5034732;28;20106;-72
2022/04/13 09:23:55;;;;;;;17.97;9.40;;;15.90;68.60;;;;;;5043699;28;20293;-72
2022/04/13 09:26:25;;;;;;;19.63;10.93;;;16.00;68.80;;;;;;5033851;28;20275;-72
2022/04/13 09:28:50;;;;;;;15.57;9.20;;;16.20;68.90;;;;;;5061892;28;20068;-72
2022/04/13 09:31:16;;;;;;;17.87;9.80;;;16.20;68.50;;;;;;5033658;28;20322;-72
2022/04/13 09:33:43;;;;;;;18.03;10.27;;;16.30;67.30;;;;;;5035319;28;20041;-72
2022/04/13 09:36:08;;;;;;;22.17;10.87;;;16.20;68.20;;;;;;5058936;28;20044;-72
2022/04/13 09:38:35;;;;;;;16.77;9.43;;;16.20;68.50;;;;;;5021354;28;20660;-72
2022/04/13 09:41:09;;;;;;;18.37;9.23;;;16.20;67.60;;;;;;5049726;28;20048;-72
2022/04/13 09:43:36;;;;;;;18.17;9.07;;;16.10;67.50;;;;;;5059184;28;20283;-72
2022/04/13 09:46:03;;;;;;;19.80;10.20;;;16.00;67.60;;;;;;5042793;28;20405;-72
2022/04/13 09:48:29;;;;;;;17.87;9.60;;;16.00;67.60;;;;;;5044741;28;20286;-72
2022/04/13 09:51:00;;;;;;;18.20;9.13;;;16.20;67.80;;;;;;5033371;28;20287;-72
2022/04/13 09:53:26;;;;;;;17.00;9.07;;;16.40;67.70;;;;;;5037540;28;20416;-72
2022/04/13 09:55:54;;;;;;;15.33;8.47;;;16.30;67.50;;;;;;5039245;28;20768;-72
2022/04/13 09:58:22;;;;;;;14.63;8.93;;;16.40;67.00;;;;;;5038632;28;20296;-72
2022/04/13 10:00:51;;;;;;;14.77;7.57;;;16.60;66.10;;;;;;5036673;28;20491;-72
2022/04/13 10:03:27;;;;;;;14.97;7.80;;;16.80;66.90;;;;;;5061376;28;20283;-72
2022/04/13 10:05:55;;;;;;;17.23;8.60;;;17.00;66.30;;;;;;5052674;28;20283;-72
2022/04/13 10:08:23;;;;;;;12.47;8.27;;;17.00;64.30;;;;;;5049999;28;20620;-72
2022/04/13 10:10:50;;;;;;;19.33;8.80;;;16.90;64.90;;;;;;5020148;28;20282;-73
2022/04/13 10:13:41;;;;;;;14.90;8.13;;;16.80;65.10;;;;;;5048819;28;20294;-73
2022/04/13 10:16:09;;;;;;;14.90;7.53;;;17.00;65.00;;;;;;5058046;28;20291;-72
2022/04/13 10:18:55;;;;;;;14.77;7.13;;;16.90;65.70;;;;;;5063374;28;20275;-73
2022/04/13 10:21:40;;;;;;;14.47;8.17;;;17.00;65.80;;;;;;5057660;28;20307;-73
2022/04/13 10:24:07;;;;;;;15.77;7.30;;;17.00;65.00;;;;;;5029913;28;20293;-73
2022/04/13 10:26:33;;;;;;;16.27;8.20;;;16.90;65.50;;;;;;5031494;28;20041;-72
2022/04/13 10:28:59;;;;;;;13.50;7.43;;;16.90;65.80;;;;;;5030369;28;20279;-73
2022/04/13 10:31:25;;;;;;;18.37;8.30;;;16.90;65.90;;;;;;5047104;28;20073;-72
2022/04/13 10:33:52;;;;;;;14.27;7.43;;;16.90;65.50;;;;;;5030971;28;20045;-73
2022/04/13 10:36:19;;;;;;;21.27;8.30;;;17.00;65.90;;;;;;5043587;28;20056;-72
2022/04/13 10:38:45;;;;;;;15.17;6.47;;;17.00;65.60;;;;;;5052094;28;20334;-72
2022/04/13 10:41:16;;;;;;;14.23;6.17;;;17.00;65.50;;;;;;5046540;28;20792;-72
2022/04/13 10:43:52;;;;;;;12.17;5.93;;;17.20;65.30;;;;;;5058307;28;20370;-72
2022/04/13 10:46:20;;;;;;;10.70;5.50;;;17.30;64.60;;;;;;5048331;28;20358;-72
2022/04/13 10:48:50;;;;;;;13.17;6.27;;;17.50;64.10;;;;;;5033366;28;20354;-72
2022/04/13 10:51:22;;;;;;;12.63;5.63;;;17.20;63.10;;;;;;5047573;28;20283;-73
2022/04/13 10:54:02;;;;;;;16.27;7.17;;;16.90;63.70;;;;;;5034020;28;20279;-72
2022/04/13 10:56:31;;;;;;;15.17;5.73;;;16.90;64.70;;;;;;5037749;28;20290;-72
2022/04/13 10:59:03;;;;;;;13.90;6.10;;;16.80;65.10;;;;;;5049993;28;20309;-72
2022/04/13 11:01:35;;;;;;;13.80;6.80;;;16.90;65.30;;;;;;5045377;28;20468;-73
2022/04/13 11:04:04;;;;;;;15.47;6.90;;;17.00;64.60;;;;;;5044431;28;20351;-73
2022/04/13 11:06:31;;;;;;;17.33;6.20;;;16.90;64.90;;;;;;5032497;28;20314;-72
2022/04/13 11:09:03;;;;;;;14.93;5.47;;;17.00;65.00;;;;;;5027558;28;20599;-73
2022/04/13 11:11:31;;;;;;;15.93;7.30;;;17.00;65.10;;;;;;5056660;28;20286;-73
2022/04/13 11:13:57;;;;;;;15.60;7.07;;;16.90;64.20;;;;;;5033364;28;20366;-73
2022/04/13 11:16:24;;;;;;;14.03;6.77;;;16.60;65.10;;;;;;5056138;28;20589;-73
2022/04/13 11:19:05;;;;;;;20.27;7.73;;;16.30;65.50;;;;;;5040749;28;20377;-73
2022/04/13 11:21:55;;;;;;;17.03;7.60;;;16.00;65.90;;;;;;5057736;28;20387;-73
2022/04/13 11:24:31;;;;;;;13.77;7.30;;;15.90;66.00;;;;;;5030520;28;20853;-72
2022/04/13 11:26:57;;;;;;;17.43;8.37;;;15.60;67.70;;;;;;5057067;28;20353;-72
2022/04/13 11:29:23;;;;;;;15.03;7.33;;;15.60;67.30;;;;;;5053886;28;20322;-72
2022/04/13 11:32:01;;;;;;;17.10;7.70;;;15.50;67.50;;;;;;5030097;28;20052;-72
2022/04/13 11:34:35;;;;;;;14.63;8.57;;;15.50;67.90;;;;;;5039927;28;20664;-72
2022/04/13 11:37:04;;;;;;;17.80;9.13;;;15.40;68.40;;;;;;5031889;28;20592;-73
2022/04/13 11:39:49;;;;;;;17.00;8.80;;;15.30;68.40;;;;;;5032350;28;20329;-73
2022/04/13 11:42:20;;;;;;;13.45;8.38;;;15.20;68.50;;;;;;5045842;28;20333;-72
2022/04/13 11:45:13;;;;;;;14.80;8.47;;;15.00;69.50;;;;;;5048791;28;20041;-72
2022/04/13 11:47:58;;;;;;;17.77;8.80;;;14.90;70.00;;;;;;5035381;28;20271;-72
2022/04/13 11:50:36;;;;;;;18.83;8.65;;;14.80;70.50;;;;;;5036677;28;20738;-72
2022/04/13 11:53:09;;;;;;;15.70;7.80;;;14.80;70.60;;;;;;5032342;28;20048;-72
2022/04/13 11:55:42;;;;;;;17.77;8.43;;;14.80;70.30;;;;;;5062263;28;20735;-72
2022/04/13 11:58:07;;;;;;;17.67;8.97;;;14.80;70.90;;;;;;5049976;28;20850;-72
2022/04/13 12:00:56;;;;;;;17.30;9.50;;;14.90;70.70;;;;;;5039127;28;20327;-72
2022/04/13 12:03:32;;;;;;;18.80;9.23;;;15.10;70.60;;;;;;5061721;28;20465;-72
2022/04/13 12:06:22;;;;;;;16.87;9.00;;;15.30;70.00;;;;;;5038832;28;20333;-72
2022/04/13 12:08:55;;;;;;;15.13;8.70;;;15.30;70.00;;;;;;5034623;28;20804;-72
2022/04/13 12:11:24;;;;;;;17.90;8.87;;;15.30;69.80;;;;;;5017615;28;20280;-72
2022/04/13 12:13:59;;;;;;;15.53;9.17;;;15.40;69.60;;;;;;5026326;28;20298;-72
2022/04/13 12:16:30;;;;;;;20.80;9.70;;;15.40;69.50;;;;;;5028823;28;20296;-72
2022/04/13 12:19:04;;;;;;;17.67;8.43;;;15.20;69.90;;;;;;5017804;28;20279;-72
2022/04/13 12:21:32;;;;;;;19.73;9.05;;;15.30;70.00;;;;;;5029557;28;20414;-72
2022/04/13 12:24:03;;;;;;;20.63;9.13;;;15.40;70.20;;;;;;5000888;28;20056;-72
2022/04/13 12:26:44;;;;;;;17.73;9.43;;;15.80;70.10;;;;;;5025328;28;20343;-72
2022/04/13 12:29:20;;;;;;;18.10;8.43;;;16.10;69.40;;;;;;5024526;28;20363;-72
2022/04/13 12:31:51;;;;;;;16.17;9.00;;;16.40;68.20;;;;;;5027971;28;20284;-72
2022/04/13 12:34:18;;;;;;;15.40;9.23;;;16.60;68.20;;;;;;5027903;28;20349;-72